createdAt,value
2023-03-22T00:02:04.300Z,100468.75
2023-03-22T00:04:36.333Z,100467.34
2023-03-22T00:07:08.116Z,100468.19
2023-03-22T00:09:39.953Z,100464.69
2023-03-22T00:12:13.295Z,100463.00
2023-03-22T00:14:46.766Z,100461.78
2023-03-22T00:17:18.371Z,100461.63
2023-03-22T00:19:50.354Z,100464.44
2023-03-22T00:22:22.084Z,100467.97
2023-03-22T00:24:53.953Z,100460.94
2023-03-22T00:27:25.945Z,100457.00
2023-03-22T00:29:59.224Z,100455.47
2023-03-22T00:32:31.127Z,100458.94
2023-03-22T00:35:03.624Z,100451.97
2023-03-22T00:37:38.467Z,100451.66
2023-03-22T00:40:13.840Z,100445.91
2023-03-22T00:42:46.131Z,100442.50
2023-03-22T00:45:19.120Z,100436.03
2023-03-22T00:47:51.050Z,100444.06
2023-03-22T00:50:22.683Z,100429.41
2023-03-22T00:52:54.532Z,100434.75
2023-03-22T00:55:26.387Z,100428.25
2023-03-22T00:57:58.227Z,100421.28
2023-03-22T01:00:32.156Z,100421.59
2023-03-22T01:03:04.981Z,100419.06
2023-03-22T01:05:37.719Z,100412.03
2023-03-22T01:08:12.823Z,100414.84
2023-03-22T01:10:46.006Z,100418.81
2023-03-22T01:13:18.307Z,100410.94
2023-03-22T01:15:53.247Z,100411.25
2023-03-22T01:18:26.066Z,100415.75
2023-03-22T01:20:57.891Z,100408.06
2023-03-22T01:23:29.876Z,100407.06
2023-03-22T01:26:01.894Z,100401.88
2023-03-22T01:28:34.739Z,100393.88
2023-03-22T01:31:08.337Z,100396.72
2023-03-22T01:33:40.033Z,100390.84
2023-03-22T01:36:14.249Z,100390.84
2023-03-22T01:38:46.067Z,100389.03
2023-03-22T01:41:18.542Z,100386.50
2023-03-22T01:44:13.281Z,100392.53
2023-03-22T01:46:46.422Z,100390.00
2023-03-22T01:49:24.118Z,100384.69
2023-03-22T01:52:00.240Z,100381.03
2023-03-22T01:54:40.296Z,100390.84
2023-03-22T01:57:12.347Z,100383.84
2023-03-22T01:59:47.345Z,100379.34
2023-03-22T02:02:19.954Z,100377.38
2023-03-22T02:04:57.912Z,100381.03
2023-03-22T02:07:31.681Z,100376.38
2023-03-22T02:10:04.258Z,100368.38
2023-03-22T02:12:50.818Z,100369.22
2023-03-22T02:15:29.003Z,100358.53
2023-03-22T02:18:22.522Z,100364.72
2023-03-22T02:21:35.392Z,100359.22
2023-03-22T02:24:46.253Z,100363.56
2023-03-22T02:27:46.010Z,100361.59
2023-03-22T02:31:03.230Z,100361.59
2023-03-22T02:34:16.314Z,100360.75
2023-03-22T02:37:42.204Z,100355.97
2023-03-22T02:40:26.066Z,100350.63
2023-03-22T02:43:10.320Z,100348.09
2023-03-22T02:45:53.331Z,100347.25
2023-03-22T02:48:33.467Z,100345.59
2023-03-22T02:51:10.961Z,100342.25
2023-03-22T02:53:53.163Z,100345.06
2023-03-22T02:56:32.679Z,100342.53
2023-03-22T02:59:07.858Z,100351.38
2023-03-22T03:01:45.067Z,100347.88
2023-03-22T03:04:26.046Z,100346.19
2023-03-22T03:07:03.802Z,100347.22
2023-03-22T03:09:37.662Z,100339.34
2023-03-22T03:12:19.912Z,100337.53
2023-03-22T03:14:52.038Z,100342.84
2023-03-22T03:17:39.432Z,100345.38
2023-03-22T03:20:24.484Z,100336.38
2023-03-22T03:23:13.783Z,100330.19
2023-03-22T03:25:53.555Z,100335.38
2023-03-22T03:28:39.107Z,100335.22
2023-03-22T03:31:25.724Z,100336.22
2023-03-22T03:34:06.512Z,100335.22
2023-03-22T03:36:45.247Z,100333.56
2023-03-22T03:39:19.649Z,100338.91
2023-03-22T03:41:56.093Z,100332.41
2023-03-22T03:44:31.560Z,100326.44
2023-03-22T03:47:05.750Z,100326.63
2023-03-22T03:49:37.744Z,100321.44
2023-03-22T03:52:09.947Z,100310.09
2023-03-22T03:54:42.724Z,100315.97
2023-03-22T03:57:16.545Z,100313.28
2023-03-22T03:59:50.156Z,100313.28
2023-03-22T04:02:21.826Z,100316.47
2023-03-22T04:04:53.685Z,100315.66
2023-03-22T04:07:25.582Z,100310.31
2023-03-22T04:09:57.458Z,100315.31
2023-03-22T04:12:29.267Z,100313.50
2023-03-22T04:15:02.471Z,100306.47
2023-03-22T04:17:34.329Z,100302.97
2023-03-22T04:20:06.945Z,100304.38
2023-03-22T04:22:39.301Z,100298.66
2023-03-22T04:25:18.092Z,100309.31
2023-03-22T04:27:51.433Z,100294.31
2023-03-22T04:30:24.687Z,100287.47
2023-03-22T04:32:56.303Z,100284.94
2023-03-22T04:35:28.352Z,100293.91
2023-03-22T04:38:01.106Z,100288.75
2023-03-22T04:40:36.449Z,100289.75
2023-03-22T04:43:09.911Z,100292.56
2023-03-22T04:45:43.920Z,100288.25
2023-03-22T04:48:15.513Z,100291.75
2023-03-22T04:50:47.404Z,100289.22
2023-03-22T04:53:19.174Z,100290.06
2023-03-22T04:55:50.982Z,100289.22
2023-03-22T04:58:22.941Z,100289.22
2023-03-22T05:00:58.431Z,100290.91
2023-03-22T05:03:30.307Z,100290.59
2023-03-22T05:06:06.488Z,100290.59
2023-03-22T05:08:38.423Z,100287.59
2023-03-22T05:11:15.155Z,100280.53
2023-03-22T05:13:47.062Z,100289.88
2023-03-22T05:16:20.675Z,100287.06
2023-03-22T05:18:54.364Z,100289.88
2023-03-22T05:21:28.976Z,100287.91
2023-03-22T05:24:01.645Z,100286.22
2023-03-22T05:26:33.506Z,100282.72
2023-03-22T05:29:07.336Z,100276.94
2023-03-22T05:31:40.416Z,100281.09
2023-03-22T05:34:13.167Z,100283.44
2023-03-22T05:36:44.925Z,100288.84
2023-03-22T05:39:16.841Z,100283.50
2023-03-22T05:41:48.729Z,100288.53
2023-03-22T05:44:20.592Z,100284.56
2023-03-22T05:46:53.827Z,100277.00
2023-03-22T05:49:26.805Z,100279.53
2023-03-22T05:51:58.832Z,100288.00
2023-03-22T05:54:31.169Z,100292.38
2023-03-22T05:57:03.017Z,100279.75
2023-03-22T05:59:35.578Z,100281.19
2023-03-22T06:02:08.900Z,100280.91
2023-03-22T06:04:41.597Z,100273.56
2023-03-22T06:07:13.523Z,100263.72
2023-03-22T06:09:45.986Z,100260.34
2023-03-22T06:12:18.560Z,100243.84
2023-03-22T06:14:50.345Z,100243.03
2023-03-22T06:17:23.902Z,100244.16
2023-03-22T06:19:55.821Z,100244.00
2023-03-22T06:22:30.392Z,100236.84
2023-03-22T06:25:02.530Z,100245.00
2023-03-22T06:27:34.356Z,100245.84
2023-03-22T06:30:06.730Z,100244.16
2023-03-22T06:32:40.731Z,100248.03
2023-03-22T06:35:13.746Z,100248.56
2023-03-22T06:37:45.651Z,100252.88
2023-03-22T06:40:17.906Z,100252.22
2023-03-22T06:42:49.742Z,100250.38
2023-03-22T06:45:21.533Z,100250.22
2023-03-22T06:47:54.716Z,100237.56
2023-03-22T06:50:26.522Z,100249.59
2023-03-22T06:52:58.422Z,100244.91
2023-03-22T06:55:33.208Z,100256.25
2023-03-22T06:58:05.876Z,100248.63
2023-03-22T07:00:38.781Z,100256.31
2023-03-22T07:03:12.296Z,100256.16
2023-03-22T07:05:44.150Z,100254.16
2023-03-22T07:08:16.656Z,100252.13
2023-03-22T07:10:52.201Z,100245.66
2023-03-22T07:13:24.035Z,100245.34
2023-03-22T07:16:02.175Z,100253.03
2023-03-22T07:18:35.796Z,100242.38
2023-03-22T07:21:07.486Z,100250.91
2023-03-22T07:23:39.390Z,100245.22
2023-03-22T07:26:13.279Z,100237.72
2023-03-22T07:28:46.514Z,100239.91
2023-03-22T07:31:18.957Z,100240.72
2023-03-22T07:33:52.530Z,100246.25
2023-03-22T07:36:25.730Z,100251.13
2023-03-22T07:38:57.548Z,100246.09
2023-03-22T07:41:30.556Z,100249.13
2023-03-22T07:44:15.277Z,100241.94
2023-03-22T07:46:51.662Z,100241.81
2023-03-22T07:49:24.771Z,100250.47
2023-03-22T07:51:56.575Z,100242.47
2023-03-22T07:54:33.880Z,100244.13
2023-03-22T07:57:06.737Z,100232.78
2023-03-22T07:59:40.199Z,100224.94
2023-03-22T08:02:12.537Z,100225.44
2023-03-22T08:04:46.292Z,100236.09
2023-03-22T08:07:18.970Z,100227.41
2023-03-22T08:09:50.774Z,100222.38
2023-03-22T08:12:23.033Z,100220.72
2023-03-22T08:14:54.804Z,100230.56
2023-03-22T08:17:26.936Z,100216.47
2023-03-22T08:20:00.524Z,100215.75
2023-03-22T08:22:34.099Z,100221.91
2023-03-22T08:25:09.186Z,100215.88
2023-03-22T08:27:41.047Z,100215.47
2023-03-22T08:30:13.165Z,100215.44
2023-03-22T08:32:44.896Z,100205.06
2023-03-22T08:35:18.944Z,100204.09
2023-03-22T08:37:53.918Z,100201.28
2023-03-22T08:40:27.333Z,100200.63
2023-03-22T08:42:59.490Z,100196.34
2023-03-22T08:45:31.576Z,100192.72
2023-03-22T08:48:05.011Z,100179.13
2023-03-22T08:50:39.693Z,100178.94
2023-03-22T08:53:13.761Z,100175.91
2023-03-22T08:55:47.418Z,100171.22
2023-03-22T08:58:20.788Z,100168.91
2023-03-22T09:00:53.053Z,100162.81
2023-03-22T09:03:26.679Z,100171.16
2023-03-22T09:05:59.988Z,100168.31
2023-03-22T09:08:31.812Z,100173.81
2023-03-22T09:11:03.698Z,100166.09
2023-03-22T09:13:35.772Z,100173.13
2023-03-22T09:16:09.033Z,100161.75
2023-03-22T09:18:42.155Z,100167.34
2023-03-22T09:21:15.905Z,100165.63
2023-03-22T09:23:48.175Z,100167.59
2023-03-22T09:26:20.181Z,100161.03
2023-03-22T09:28:52.162Z,100152.91
2023-03-22T09:31:24.173Z,100144.56
2023-03-22T09:33:57.478Z,100149.25
2023-03-22T09:36:32.257Z,100143.03
2023-03-22T09:39:07.221Z,100137.78
2023-03-22T09:41:47.264Z,100135.94
2023-03-22T09:44:28.338Z,100138.03
2023-03-22T09:47:05.278Z,100128.56
2023-03-22T09:49:53.383Z,100130.56
2023-03-22T09:52:27.356Z,100127.22
2023-03-22T09:54:59.947Z,100128.81
2023-03-22T09:57:37.823Z,100124.28
2023-03-22T10:00:23.670Z,100116.50
2023-03-22T10:03:08.885Z,100122.06
2023-03-22T10:05:51.054Z,100124.75
2023-03-22T10:08:45.394Z,100117.97
2023-03-22T10:11:24.719Z,100110.09
2023-03-22T10:14:07.189Z,100116.47
2023-03-22T10:16:40.917Z,100114.06
2023-03-22T10:19:27.324Z,100118.59
2023-03-22T10:22:03.882Z,100107.41
2023-03-22T10:24:40.324Z,100106.38
2023-03-22T10:27:21.457Z,100105.13
2023-03-22T10:30:00.870Z,100100.78
2023-03-22T10:32:56.765Z,100103.84
2023-03-22T10:35:30.509Z,100093.16
2023-03-22T10:38:10.500Z,100094.91
2023-03-22T10:40:44.514Z,100098.50
2023-03-22T10:43:26.428Z,100104.09
2023-03-22T10:46:01.583Z,100100.75
2023-03-22T10:48:40.459Z,100095.75
2023-03-22T10:51:21.798Z,100101.78
2023-03-22T10:53:58.171Z,100094.25
2023-03-22T10:56:31.552Z,100102.09
2023-03-22T10:59:03.365Z,100100.31
2023-03-22T11:01:38.983Z,100112.06
2023-03-22T11:04:15.232Z,100102.91
2023-03-22T11:06:56.452Z,100103.28
2023-03-22T11:09:28.789Z,100109.66
2023-03-22T11:12:04.316Z,100095.19
2023-03-22T11:14:43.420Z,100092.53
2023-03-22T11:17:23.563Z,100082.88
2023-03-22T11:19:59.718Z,100090.09
2023-03-22T11:22:38.783Z,100084.09
2023-03-22T11:25:17.828Z,100075.00
2023-03-22T11:28:07.719Z,100085.75
2023-03-22T11:30:42.487Z,100077.31
2023-03-22T11:33:25.016Z,100081.53
2023-03-22T11:36:00.819Z,100073.97
2023-03-22T11:38:44.217Z,100090.72
2023-03-22T11:41:26.079Z,100084.38
2023-03-22T11:44:03.469Z,100081.50
2023-03-22T11:46:37.512Z,100076.97
2023-03-22T11:49:18.405Z,100080.47
2023-03-22T11:51:50.225Z,100089.63
2023-03-22T11:54:31.820Z,100078.66
2023-03-22T11:57:11.828Z,100087.16
2023-03-22T11:59:51.270Z,100086.53
2023-03-22T12:02:27.848Z,100086.59
2023-03-22T12:05:07.089Z,100078.84
2023-03-22T12:07:42.093Z,100069.59
2023-03-22T12:10:26.366Z,100088.91
2023-03-22T12:13:04.625Z,100082.50
2023-03-22T12:15:48.239Z,100076.00
2023-03-22T12:18:27.794Z,100077.28
2023-03-22T12:21:02.538Z,100080.22
2023-03-22T12:23:36.625Z,100076.88
2023-03-22T12:26:16.014Z,100076.88
2023-03-22T12:28:57.601Z,100071.34
2023-03-22T12:31:38.299Z,100070.13
2023-03-22T12:34:18.385Z,100070.03
2023-03-22T12:36:55.530Z,100062.97
2023-03-22T12:39:35.673Z,100070.44
2023-03-22T12:42:19.285Z,100065.06
2023-03-22T12:45:04.181Z,100063.38
2023-03-22T12:47:47.737Z,100077.50
2023-03-22T12:50:27.231Z,100072.88
2023-03-22T12:53:02.365Z,100059.00
2023-03-22T12:55:38.458Z,100053.44
2023-03-22T12:58:13.971Z,100057.78
2023-03-22T13:00:51.700Z,100055.09
2023-03-22T13:03:38.233Z,100047.59
2023-03-22T13:06:33.223Z,100047.16
2023-03-22T13:09:20.911Z,100044.28
2023-03-22T13:12:32.809Z,100040.94
2023-03-22T13:15:40.416Z,100034.56
2023-03-22T13:21:17.484Z,100026.25
2023-03-22T13:24:00.568Z,100026.91
2023-03-22T13:26:40.807Z,100018.22
2023-03-22T13:29:18.563Z,100024.41
2023-03-22T13:31:58.289Z,100009.94
2023-03-22T13:34:39.395Z,100020.28
2023-03-22T13:37:30.202Z,100014.31
2023-03-22T13:40:02.164Z,100015.31
2023-03-22T13:42:37.772Z,100014.31
2023-03-22T13:45:11.006Z,100020.09
2023-03-22T13:47:46.712Z,100013.03
2023-03-22T13:50:22.455Z,100010.53
2023-03-22T13:53:03.793Z,100017.16
2023-03-22T13:56:05.116Z,100025.22
2023-03-22T13:58:51.259Z,100027.31
2023-03-22T14:01:30.411Z,100039.91
2023-03-22T14:04:03.370Z,100024.56
2023-03-22T14:06:36.522Z,100034.25
2023-03-22T14:09:21.641Z,100034.25
2023-03-22T14:11:57.348Z,100034.66
2023-03-22T14:14:30.828Z,100036.91
2023-03-22T14:17:05.854Z,100042.06
2023-03-22T14:19:37.616Z,100042.84
